sensor_id;sensor_type;location;lat;lon;timestamp;temperature;humidity
80232;DHT22;74189;42.124;24.752;2023-12-22T00:01:20;4.40;62.20
80232;DHT22;74189;42.124;24.752;2023-12-22T00:03:46;4.40;62.20
80232;DHT22;74189;42.124;24.752;2023-12-22T00:06:12;4.40;62.00
80232;DHT22;74189;42.124;24.752;2023-12-22T00:08:38;4.30;62.00
80232;DHT22;74189;42.124;24.752;2023-12-22T00:11:04;4.20;62.50
80232;DHT22;74189;42.124;24.752;2023-12-22T00:13:30;4.10;62.60
80232;DHT22;74189;42.124;24.752;2023-12-22T00:15:58;4.10;62.90
80232;DHT22;74189;42.124;24.752;2023-12-22T00:18:23;4.10;62.90
80232;DHT22;74189;42.124;24.752;2023-12-22T00:20:49;3.50;64.50
80232;DHT22;74189;42.124;24.752;2023-12-22T00:23:15;3.30;65.90
80232;DHT22;74189;42.124;24.752;2023-12-22T00:25:40;3.40;66.20
80232;DHT22;74189;42.124;24.752;2023-12-22T00:28:06;3.60;65.60
80232;DHT22;74189;42.124;24.752;2023-12-22T00:30:31;3.80;64.80
80232;DHT22;74189;42.124;24.752;2023-12-22T00:32:57;4.00;64.50
80232;DHT22;74189;42.124;24.752;2023-12-22T00:35:23;4.10;63.90
80232;DHT22;74189;42.124;24.752;2023-12-22T00:37:48;4.20;63.50
80232;DHT22;74189;42.124;24.752;2023-12-22T00:40:14;4.10;63.20
80232;DHT22;74189;42.124;24.752;2023-12-22T00:42:40;4.20;63.30
80232;DHT22;74189;42.124;24.752;2023-12-22T00:45:05;4.20;63.40
80232;DHT22;74189;42.124;24.752;2023-12-22T00:47:31;4.20;63.40
80232;DHT22;74189;42.124;24.752;2023-12-22T00:50:00;4.10;63.70
80232;DHT22;74189;42.124;24.752;2023-12-22T00:52:25;4.10;64.00
80232;DHT22;74189;42.124;24.752;2023-12-22T00:54:52;3.70;64.80
80232;DHT22;74189;42.124;24.752;2023-12-22T00:57:17;3.70;65.40
80232;DHT22;74189;42.124;24.752;2023-12-22T00:59:43;3.80;65.40
80232;DHT22;74189;42.124;24.752;2023-12-22T01:02:13;3.60;65.70
80232;DHT22;74189;42.124;24.752;2023-12-22T01:04:39;3.40;67.10
80232;DHT22;74189;42.124;24.752;2023-12-22T01:07:07;3.40;66.80
80232;DHT22;74189;42.124;24.752;2023-12-22T01:09:33;3.70;66.00
80232;DHT22;74189;42.124;24.752;2023-12-22T01:11:59;4.00;65.30
80232;DHT22;74189;42.124;24.752;2023-12-22T01:14:28;4.20;64.70
80232;DHT22;74189;42.124;24.752;2023-12-22T01:16:53;4.30;64.10
80232;DHT22;74189;42.124;24.752;2023-12-22T01:19:19;4.40;64.00
80232;DHT22;74189;42.124;24.752;2023-12-22T01:21:44;4.50;63.80
80232;DHT22;74189;42.124;24.752;2023-12-22T01:24:10;4.50;63.40
80232;DHT22;74189;42.124;24.752;2023-12-22T01:26:36;4.60;62.80
80232;DHT22;74189;42.124;24.752;2023-12-22T01:29:02;4.60;62.80
80232;DHT22;74189;42.124;24.752;2023-12-22T01:31:28;4.70;62.80
80232;DHT22;74189;42.124;24.752;2023-12-22T01:33:53;4.70;62.60
80232;DHT22;74189;42.124;24.752;2023-12-22T01:36:19;4.80;62.70
80232;DHT22;74189;42.124;24.752;2023-12-22T01:38:44;4.80;62.60
80232;DHT22;74189;42.124;24.752;2023-12-22T01:41:10;4.80;62.30
80232;DHT22;74189;42.124;24.752;2023-12-22T01:43:36;4.80;62.70
80232;DHT22;74189;42.124;24.752;2023-12-22T01:46:02;4.80;62.60
80232;DHT22;74189;42.124;24.752;2023-12-22T01:48:28;4.80;62.30
80232;DHT22;74189;42.124;24.752;2023-12-22T01:50:55;4.80;62.50
80232;DHT22;74189;42.124;24.752;2023-12-22T01:53:22;4.80;62.10
80232;DHT22;74189;42.124;24.752;2023-12-22T01:55:50;4.90;61.80
80232;DHT22;74189;42.124;24.752;2023-12-22T01:58:17;4.90;61.60
80232;DHT22;74189;42.124;24.752;2023-12-22T02:00:43;4.80;61.50
80232;DHT22;74189;42.124;24.752;2023-12-22T02:03:09;4.90;62.00
80232;DHT22;74189;42.124;24.752;2023-12-22T02:05:35;4.90;61.80
80232;DHT22;74189;42.124;24.752;2023-12-22T02:08:01;4.90;62.20
80232;DHT22;74189;42.124;24.752;2023-12-22T02:10:26;4.90;62.00
80232;DHT22;74189;42.124;24.752;2023-12-22T02:12:52;5.00;61.80
80232;DHT22;74189;42.124;24.752;2023-12-22T02:15:18;5.00;61.80
80232;DHT22;74189;42.124;24.752;2023-12-22T02:17:51;5.00;61.80
80232;DHT22;74189;42.124;24.752;2023-12-22T02:20:21;5.00;61.70
80232;DHT22;74189;42.124;24.752;2023-12-22T02:22:51;4.90;62.10
80232;DHT22;74189;42.124;24.752;2023-12-22T02:25:18;5.00;62.20
80232;DHT22;74189;42.124;24.752;2023-12-22T02:28:05;5.00;61.90
80232;DHT22;74189;42.124;24.752;2023-12-22T02:30:34;5.00;62.10
80232;DHT22;74189;42.124;24.752;2023-12-22T02:33:04;5.00;62.00
80232;DHT22;74189;42.124;24.752;2023-12-22T02:35:33;4.90;62.10
80232;DHT22;74189;42.124;24.752;2023-12-22T02:38:01;5.00;62.10
80232;DHT22;74189;42.124;24.752;2023-12-22T02:40:27;4.70;62.50
80232;DHT22;74189;42.124;24.752;2023-12-22T02:42:53;4.70;62.70
80232;DHT22;74189;42.124;24.752;2023-12-22T02:45:19;4.80;62.70
80232;DHT22;74189;42.124;24.752;2023-12-22T02:47:46;4.90;62.30
80232;DHT22;74189;42.124;24.752;2023-12-22T02:50:13;4.90;62.00
80232;DHT22;74189;42.124;24.752;2023-12-22T02:52:40;4.90;61.90
80232;DHT22;74189;42.124;24.752;2023-12-22T02:55:06;4.70;62.20
80232;DHT22;74189;42.124;24.752;2023-12-22T02:57:31;4.80;62.20
80232;DHT22;74189;42.124;24.752;2023-12-22T02:59:57;4.90;62.10
80232;DHT22;74189;42.124;24.752;2023-12-22T03:02:23;5.00;62.00
80232;DHT22;74189;42.124;24.752;2023-12-22T03:04:49;5.00;62.40
80232;DHT22;74189;42.124;24.752;2023-12-22T03:07:15;5.00;62.40
80232;DHT22;74189;42.124;24.752;2023-12-22T03:09:42;5.10;62.10
80232;DHT22;74189;42.124;24.752;2023-12-22T03:12:08;5.10;61.80
80232;DHT22;74189;42.124;24.752;2023-12-22T03:14:34;5.20;61.70
80232;DHT22;74189;42.124;24.752;2023-12-22T03:17:00;5.20;62.10
80232;DHT22;74189;42.124;24.752;2023-12-22T03:19:26;5.20;62.20
80232;DHT22;74189;42.124;24.752;2023-12-22T03:21:52;5.20;62.00
80232;DHT22;74189;42.124;24.752;2023-12-22T03:24:17;5.20;61.80
80232;DHT22;74189;42.124;24.752;2023-12-22T03:26:48;5.20;61.60
80232;DHT22;74189;42.124;24.752;2023-12-22T03:29:13;5.30;61.70
80232;DHT22;74189;42.124;24.752;2023-12-22T03:31:39;5.20;61.70
80232;DHT22;74189;42.124;24.752;2023-12-22T03:34:05;5.20;62.00
80232;DHT22;74189;42.124;24.752;2023-12-22T03:36:31;5.20;62.20
80232;DHT22;74189;42.124;24.752;2023-12-22T03:38:56;5.20;62.30
80232;DHT22;74189;42.124;24.752;2023-12-22T03:41:22;5.30;62.30
80232;DHT22;74189;42.124;24.752;2023-12-22T03:43:48;5.30;62.10
80232;DHT22;74189;42.124;24.752;2023-12-22T03:46:13;5.30;61.90
80232;DHT22;74189;42.124;24.752;2023-12-22T03:48:39;5.30;61.90
80232;DHT22;74189;42.124;24.752;2023-12-22T03:51:04;5.30;61.90
80232;DHT22;74189;42.124;24.752;2023-12-22T03:53:30;5.30;61.70
80232;DHT22;74189;42.124;24.752;2023-12-22T03:55:56;5.30;62.00
80232;DHT22;74189;42.124;24.752;2023-12-22T03:58:22;5.30;61.80
80232;DHT22;74189;42.124;24.752;2023-12-22T04:00:48;5.30;61.50
80232;DHT22;74189;42.124;24.752;2023-12-22T04:03:14;5.30;61.20
80232;DHT22;74189;42.124;24.752;2023-12-22T04:05:39;5.30;60.70
80232;DHT22;74189;42.124;24.752;2023-12-22T04:08:06;5.30;60.80
80232;DHT22;74189;42.124;24.752;2023-12-22T04:10:32;5.30;61.00
80232;DHT22;74189;42.124;24.752;2023-12-22T04:12:57;5.40;61.20
80232;DHT22;74189;42.124;24.752;2023-12-22T04:15:23;5.40;61.30
80232;DHT22;74189;42.124;24.752;2023-12-22T04:17:48;5.40;61.40
80232;DHT22;74189;42.124;24.752;2023-12-22T04:20:15;5.50;60.90
80232;DHT22;74189;42.124;24.752;2023-12-22T04:22:41;5.50;60.70
80232;DHT22;74189;42.124;24.752;2023-12-22T04:25:07;5.40;61.00
80232;DHT22;74189;42.124;24.752;2023-12-22T04:27:34;5.40;61.60
80232;DHT22;74189;42.124;24.752;2023-12-22T04:29:59;5.40;61.40
80232;DHT22;74189;42.124;24.752;2023-12-22T04:32:25;5.50;61.30
80232;DHT22;74189;42.124;24.752;2023-12-22T04:34:50;5.50;61.40
80232;DHT22;74189;42.124;24.752;2023-12-22T04:37:16;5.40;61.30
80232;DHT22;74189;42.124;24.752;2023-12-22T04:39:42;5.40;61.50
80232;DHT22;74189;42.124;24.752;2023-12-22T04:42:07;5.40;61.70
80232;DHT22;74189;42.124;24.752;2023-12-22T04:44:33;5.40;61.70
80232;DHT22;74189;42.124;24.752;2023-12-22T04:46:58;5.50;61.50
80232;DHT22;74189;42.124;24.752;2023-12-22T04:49:24;5.50;61.60
80232;DHT22;74189;42.124;24.752;2023-12-22T04:51:50;5.40;61.70
80232;DHT22;74189;42.124;24.752;2023-12-22T04:54:15;5.40;61.70
80232;DHT22;74189;42.124;24.752;2023-12-22T04:56:41;5.50;61.60
80232;DHT22;74189;42.124;24.752;2023-12-22T04:59:06;5.50;61.60
80232;DHT22;74189;42.124;24.752;2023-12-22T05:01:32;5.50;61.60
80232;DHT22;74189;42.124;24.752;2023-12-22T05:03:58;5.50;61.90
80232;DHT22;74189;42.124;24.752;2023-12-22T05:06:23;5.20;62.30
80232;DHT22;74189;42.124;24.752;2023-12-22T05:08:49;5.20;63.10
80232;DHT22;74189;42.124;24.752;2023-12-22T05:11:14;5.20;63.00
80232;DHT22;74189;42.124;24.752;2023-12-22T05:13:40;5.30;62.90
80232;DHT22;74189;42.124;24.752;2023-12-22T05:16:07;5.40;62.80
80232;DHT22;74189;42.124;24.752;2023-12-22T05:18:33;5.30;63.50
80232;DHT22;74189;42.124;24.752;2023-12-22T05:20:58;5.30;63.70
80232;DHT22;74189;42.124;24.752;2023-12-22T05:23:24;5.10;64.20
80232;DHT22;74189;42.124;24.752;2023-12-22T05:25:50;5.20;64.30
80232;DHT22;74189;42.124;24.752;2023-12-22T05:28:15;5.00;64.60
80232;DHT22;74189;42.124;24.752;2023-12-22T05:30:41;5.10;63.80
80232;DHT22;74189;42.124;24.752;2023-12-22T05:33:07;5.10;63.30
80232;DHT22;74189;42.124;24.752;2023-12-22T05:35:32;5.20;63.60
80232;DHT22;74189;42.124;24.752;2023-12-22T05:37:58;5.20;63.80
80232;DHT22;74189;42.124;24.752;2023-12-22T05:40:23;5.20;63.30
80232;DHT22;74189;42.124;24.752;2023-12-22T05:42:49;5.30;62.80
80232;DHT22;74189;42.124;24.752;2023-12-22T05:45:15;5.30;62.60
80232;DHT22;74189;42.124;24.752;2023-12-22T05:47:40;5.30;62.30
80232;DHT22;74189;42.124;24.752;2023-12-22T05:50:07;5.40;62.50
80232;DHT22;74189;42.124;24.752;2023-12-22T05:52:32;5.30;62.50
80232;DHT22;74189;42.124;24.752;2023-12-22T05:54:58;5.30;62.70
80232;DHT22;74189;42.124;24.752;2023-12-22T05:57:27;5.20;63.10
80232;DHT22;74189;42.124;24.752;2023-12-22T05:59:52;5.20;63.90
80232;DHT22;74189;42.124;24.752;2023-12-22T06:02:18;4.60;66.40
80232;DHT22;74189;42.124;24.752;2023-12-22T06:04:44;4.50;67.20
80232;DHT22;74189;42.124;24.752;2023-12-22T06:07:10;4.40;67.30
80232;DHT22;74189;42.124;24.752;2023-12-22T06:09:36;4.50;67.90
80232;DHT22;74189;42.124;24.752;2023-12-22T06:12:02;4.70;67.40
80232;DHT22;74189;42.124;24.752;2023-12-22T06:14:28;4.90;66.90
80232;DHT22;74189;42.124;24.752;2023-12-22T06:16:54;4.90;66.90
80232;DHT22;74189;42.124;24.752;2023-12-22T06:19:22;4.90;66.70
80232;DHT22;74189;42.124;24.752;2023-12-22T06:21:49;5.00;66.40
80232;DHT22;74189;42.124;24.752;2023-12-22T06:24:15;5.10;66.10
80232;DHT22;74189;42.124;24.752;2023-12-22T06:26:42;5.20;65.90
80232;DHT22;74189;42.124;24.752;2023-12-22T06:29:07;5.10;65.60
80232;DHT22;74189;42.124;24.752;2023-12-22T06:31:33;5.20;65.70
80232;DHT22;74189;42.124;24.752;2023-12-22T06:33:59;5.20;65.70
80232;DHT22;74189;42.124;24.752;2023-12-22T06:36:28;5.30;65.50
80232;DHT22;74189;42.124;24.752;2023-12-22T06:38:55;5.30;65.30
80232;DHT22;74189;42.124;24.752;2023-12-22T06:43:50;5.30;65.50
80232;DHT22;74189;42.124;24.752;2023-12-22T06:46:21;5.40;65.50
80232;DHT22;74189;42.124;24.752;2023-12-22T06:48:54;5.30;65.90
80232;DHT22;74189;42.124;24.752;2023-12-22T06:51:24;5.40;65.90
80232;DHT22;74189;42.124;24.752;2023-12-22T06:53:51;5.50;65.60
80232;DHT22;74189;42.124;24.752;2023-12-22T06:56:18;5.40;65.60
80232;DHT22;74189;42.124;24.752;2023-12-22T06:58:45;5.50;66.00
80232;DHT22;74189;42.124;24.752;2023-12-22T07:01:17;5.50;66.00
80232;DHT22;74189;42.124;24.752;2023-12-22T07:03:43;5.50;66.10
80232;DHT22;74189;42.124;24.752;2023-12-22T07:06:09;5.50;65.50
80232;DHT22;74189;42.124;24.752;2023-12-22T07:08:34;5.50;65.20
80232;DHT22;74189;42.124;24.752;2023-12-22T07:11:00;5.50;65.10
80232;DHT22;74189;42.124;24.752;2023-12-22T07:13:25;5.50;65.50
80232;DHT22;74189;42.124;24.752;2023-12-22T07:15:52;5.50;65.40
80232;DHT22;74189;42.124;24.752;2023-12-22T07:18:17;5.60;66.40
80232;DHT22;74189;42.124;24.752;2023-12-22T07:20:43;5.60;65.80
80232;DHT22;74189;42.124;24.752;2023-12-22T07:23:10;5.50;65.90
80232;DHT22;74189;42.124;24.752;2023-12-22T07:25:37;5.50;66.70
80232;DHT22;74189;42.124;24.752;2023-12-22T07:28:06;5.60;66.40
80232;DHT22;74189;42.124;24.752;2023-12-22T07:30:31;5.60;66.60
80232;DHT22;74189;42.124;24.752;2023-12-22T07:32:57;5.40;67.70
80232;DHT22;74189;42.124;24.752;2023-12-22T07:35:23;5.50;67.60
80232;DHT22;74189;42.124;24.752;2023-12-22T07:37:48;5.60;67.30
80232;DHT22;74189;42.124;24.752;2023-12-22T07:40:14;5.60;66.90
80232;DHT22;74189;42.124;24.752;2023-12-22T07:42:40;5.40;68.20
80232;DHT22;74189;42.124;24.752;2023-12-22T07:45:06;5.40;69.50
80232;DHT22;74189;42.124;24.752;2023-12-22T07:47:32;5.50;68.70
80232;DHT22;74189;42.124;24.752;2023-12-22T07:49:58;5.60;68.30
80232;DHT22;74189;42.124;24.752;2023-12-22T07:52:24;5.60;68.10
80232;DHT22;74189;42.124;24.752;2023-12-22T07:54:50;5.70;68.00
80232;DHT22;74189;42.124;24.752;2023-12-22T07:57:16;5.80;68.40
80232;DHT22;74189;42.124;24.752;2023-12-22T07:59:42;5.60;69.60
80232;DHT22;74189;42.124;24.752;2023-12-22T08:02:08;5.60;69.70
80232;DHT22;74189;42.124;24.752;2023-12-22T08:04:33;5.70;69.30
80232;DHT22;74189;42.124;24.752;2023-12-22T08:06:59;5.70;69.10
80232;DHT22;74189;42.124;24.752;2023-12-22T08:09:25;5.70;69.40
80232;DHT22;74189;42.124;24.752;2023-12-22T08:11:50;5.80;69.00
80232;DHT22;74189;42.124;24.752;2023-12-22T08:14:19;6.00;68.90
80232;DHT22;74189;42.124;24.752;2023-12-22T08:16:44;6.00;68.70
80232;DHT22;74189;42.124;24.752;2023-12-22T08:19:10;5.90;69.10
80232;DHT22;74189;42.124;24.752;2023-12-22T08:21:36;6.10;68.80
80232;DHT22;74189;42.124;24.752;2023-12-22T08:24:01;6.00;68.30
80232;DHT22;74189;42.124;24.752;2023-12-22T08:26:27;6.10;67.30
80232;DHT22;74189;42.124;24.752;2023-12-22T08:28:53;6.20;67.30
80232;DHT22;74189;42.124;24.752;2023-12-22T08:31:18;6.20;66.30
80232;DHT22;74189;42.124;24.752;2023-12-22T08:33:44;6.20;66.30
80232;DHT22;74189;42.124;24.752;2023-12-22T08:36:11;6.20;66.90
80232;DHT22;74189;42.124;24.752;2023-12-22T08:38:37;6.20;66.70
80232;DHT22;74189;42.124;24.752;2023-12-22T08:41:09;6.10;66.50
80232;DHT22;74189;42.124;24.752;2023-12-22T08:43:36;6.10;67.20
80232;DHT22;74189;42.124;24.752;2023-12-22T08:46:03;6.10;67.40
80232;DHT22;74189;42.124;24.752;2023-12-22T08:48:29;6.10;67.40
80232;DHT22;74189;42.124;24.752;2023-12-22T08:50:55;6.20;67.70
80232;DHT22;74189;42.124;24.752;2023-12-22T08:53:21;6.20;67.90
80232;DHT22;74189;42.124;24.752;2023-12-22T08:55:46;6.20;67.80
80232;DHT22;74189;42.124;24.752;2023-12-22T08:58:12;6.20;68.30
80232;DHT22;74189;42.124;24.752;2023-12-22T09:00:38;6.20;69.70
80232;DHT22;74189;42.124;24.752;2023-12-22T09:03:03;6.00;71.30
80232;DHT22;74189;42.124;24.752;2023-12-22T09:05:29;6.10;71.10
80232;DHT22;74189;42.124;24.752;2023-12-22T09:07:55;6.20;71.00
80232;DHT22;74189;42.124;24.752;2023-12-22T09:10:20;6.20;70.50
80232;DHT22;74189;42.124;24.752;2023-12-22T09:12:46;6.20;70.50
80232;DHT22;74189;42.124;24.752;2023-12-22T09:15:12;6.10;71.30
80232;DHT22;74189;42.124;24.752;2023-12-22T09:17:38;6.00;71.50
80232;DHT22;74189;42.124;24.752;2023-12-22T09:20:04;6.10;71.60
80232;DHT22;74189;42.124;24.752;2023-12-22T09:22:30;6.20;71.00
80232;DHT22;74189;42.124;24.752;2023-12-22T09:24:56;6.20;70.60
80232;DHT22;74189;42.124;24.752;2023-12-22T09:27:21;6.30;70.50
80232;DHT22;74189;42.124;24.752;2023-12-22T09:29:47;6.40;70.50
80232;DHT22;74189;42.124;24.752;2023-12-22T09:32:13;6.50;70.60
80232;DHT22;74189;42.124;24.752;2023-12-22T09:34:38;6.50;70.30
80232;DHT22;74189;42.124;24.752;2023-12-22T09:37:05;6.50;69.50
80232;DHT22;74189;42.124;24.752;2023-12-22T09:39:31;6.50;69.00
80232;DHT22;74189;42.124;24.752;2023-12-22T09:41:57;6.50;68.90
80232;DHT22;74189;42.124;24.752;2023-12-22T09:44:22;6.50;69.10
80232;DHT22;74189;42.124;24.752;2023-12-22T09:46:49;6.60;69.40
80232;DHT22;74189;42.124;24.752;2023-12-22T09:49:17;6.60;69.50
80232;DHT22;74189;42.124;24.752;2023-12-22T09:51:44;6.60;69.60
80232;DHT22;74189;42.124;24.752;2023-12-22T09:54:10;6.50;70.30
80232;DHT22;74189;42.124;24.752;2023-12-22T09:56:37;6.60;70.50
80232;DHT22;74189;42.124;24.752;2023-12-22T09:59:10;6.60;70.60
80232;DHT22;74189;42.124;24.752;2023-12-22T10:01:42;6.60;71.00
80232;DHT22;74189;42.124;24.752;2023-12-22T10:04:09;6.50;71.40
80232;DHT22;74189;42.124;24.752;2023-12-22T10:06:35;6.40;72.40
80232;DHT22;74189;42.124;24.752;2023-12-22T10:09:02;6.50;72.30
80232;DHT22;74189;42.124;24.752;2023-12-22T10:11:32;6.50;71.90
80232;DHT22;74189;42.124;24.752;2023-12-22T10:14:00;6.60;72.10
80232;DHT22;74189;42.124;24.752;2023-12-22T10:16:27;6.70;71.80
80232;DHT22;74189;42.124;24.752;2023-12-22T10:18:53;6.70;71.40
80232;DHT22;74189;42.124;24.752;2023-12-22T10:21:19;6.80;71.00
80232;DHT22;74189;42.124;24.752;2023-12-22T10:23:45;6.80;71.00
80232;DHT22;74189;42.124;24.752;2023-12-22T10:26:11;6.80;70.60
80232;DHT22;74189;42.124;24.752;2023-12-22T10:28:37;6.90;70.20
80232;DHT22;74189;42.124;24.752;2023-12-22T10:31:03;6.90;69.50
80232;DHT22;74189;42.124;24.752;2023-12-22T10:33:32;7.00;68.90
80232;DHT22;74189;42.124;24.752;2023-12-22T10:35:59;7.00;69.60
80232;DHT22;74189;42.124;24.752;2023-12-22T10:38:26;7.00;69.70
80232;DHT22;74189;42.124;24.752;2023-12-22T10:40:52;7.10;70.10
80232;DHT22;74189;42.124;24.752;2023-12-22T10:43:18;7.10;70.60
80232;DHT22;74189;42.124;24.752;2023-12-22T10:45:43;7.10;71.30
80232;DHT22;74189;42.124;24.752;2023-12-22T10:48:10;7.00;72.00
80232;DHT22;74189;42.124;24.752;2023-12-22T10:50:36;7.10;71.90
80232;DHT22;74189;42.124;24.752;2023-12-22T10:53:05;7.20;71.30
80232;DHT22;74189;42.124;24.752;2023-12-22T10:55:31;7.20;70.90
80232;DHT22;74189;42.124;24.752;2023-12-22T10:58:02;7.30;71.20
80232;DHT22;74189;42.124;24.752;2023-12-22T11:00:28;7.40;70.90
80232;DHT22;74189;42.124;24.752;2023-12-22T11:03:01;7.50;70.50
80232;DHT22;74189;42.124;24.752;2023-12-22T11:07:13;7.50;66.30
80232;DHT22;74189;42.124;24.752;2023-12-22T11:09:41;7.40;67.10
80232;DHT22;74189;42.124;24.752;2023-12-22T11:12:08;7.40;67.60
80232;DHT22;74189;42.124;24.752;2023-12-22T11:14:34;7.30;69.70
80232;DHT22;74189;42.124;24.752;2023-12-22T11:17:01;7.30;69.00
80232;DHT22;74189;42.124;24.752;2023-12-22T11:19:28;7.30;69.40
80232;DHT22;74189;42.124;24.752;2023-12-22T11:21:56;7.20;69.30
80232;DHT22;74189;42.124;24.752;2023-12-22T11:24:25;7.10;70.50
80232;DHT22;74189;42.124;24.752;2023-12-22T11:26:54;7.10;71.50
80232;DHT22;74189;42.124;24.752;2023-12-22T11:29:24;7.20;73.00
80232;DHT22;74189;42.124;24.752;2023-12-22T11:31:53;7.20;73.90
80232;DHT22;74189;42.124;24.752;2023-12-22T11:34:22;7.20;74.40
80232;DHT22;74189;42.124;24.752;2023-12-22T11:36:50;7.30;74.90
80232;DHT22;74189;42.124;24.752;2023-12-22T11:39:17;7.30;74.50
80232;DHT22;74189;42.124;24.752;2023-12-22T11:41:43;7.30;75.10
80232;DHT22;74189;42.124;24.752;2023-12-22T11:44:09;7.40;74.40
80232;DHT22;74189;42.124;24.752;2023-12-22T11:46:35;7.50;73.10
80232;DHT22;74189;42.124;24.752;2023-12-22T11:49:01;7.60;71.60
80232;DHT22;74189;42.124;24.752;2023-12-22T11:51:32;7.60;70.00
80232;DHT22;74189;42.124;24.752;2023-12-22T11:54:00;7.70;69.70
80232;DHT22;74189;42.124;24.752;2023-12-22T11:56:25;7.80;69.30
80232;DHT22;74189;42.124;24.752;2023-12-22T11:58:52;7.90;68.50
80232;DHT22;74189;42.124;24.752;2023-12-22T12:01:22;7.80;68.10
80232;DHT22;74189;42.124;24.752;2023-12-22T12:03:50;7.90;68.40
80232;DHT22;74189;42.124;24.752;2023-12-22T12:06:30;8.00;68.00
80232;DHT22;74189;42.124;24.752;2023-12-22T12:08:57;8.10;67.10
80232;DHT22;74189;42.124;24.752;2023-12-22T12:11:24;8.10;66.50
80232;DHT22;74189;42.124;24.752;2023-12-22T12:14:13;8.20;65.70
80232;DHT22;74189;42.124;24.752;2023-12-22T12:16:40;8.30;65.00
80232;DHT22;74189;42.124;24.752;2023-12-22T12:19:08;8.40;64.40
80232;DHT22;74189;42.124;24.752;2023-12-22T12:21:34;8.30;63.60
80232;DHT22;74189;42.124;24.752;2023-12-22T12:24:00;8.30;63.30
80232;DHT22;74189;42.124;24.752;2023-12-22T12:26:27;8.40;62.90
80232;DHT22;74189;42.124;24.752;2023-12-22T12:28:53;8.40;62.20
80232;DHT22;74189;42.124;24.752;2023-12-22T12:44:53;8.30;59.40
80232;DHT22;74189;42.124;24.752;2023-12-22T12:47:19;8.80;58.20
80232;DHT22;74189;42.124;24.752;2023-12-22T12:49:45;8.80;57.60
80232;DHT22;74189;42.124;24.752;2023-12-22T12:52:14;8.80;56.90
80232;DHT22;74189;42.124;24.752;2023-12-22T12:54:40;8.60;55.60
80232;DHT22;74189;42.124;24.752;2023-12-22T12:57:06;8.50;56.30
80232;DHT22;74189;42.124;24.752;2023-12-22T12:59:32;8.40;56.50
80232;DHT22;74189;42.124;24.752;2023-12-22T13:01:57;8.40;56.70
80232;DHT22;74189;42.124;24.752;2023-12-22T13:04:36;8.40;56.90
80232;DHT22;74189;42.124;24.752;2023-12-22T13:07:03;8.20;56.10
80232;DHT22;74189;42.124;24.752;2023-12-22T13:09:32;8.20;57.70
80232;DHT22;74189;42.124;24.752;2023-12-22T13:11:59;8.10;56.50
80232;DHT22;74189;42.124;24.752;2023-12-22T13:14:26;8.20;57.20
80232;DHT22;74189;42.124;24.752;2023-12-22T13:16:56;8.10;56.80
80232;DHT22;74189;42.124;24.752;2023-12-22T13:19:23;8.30;56.20
80232;DHT22;74189;42.124;24.752;2023-12-22T13:21:53;8.30;55.50
80232;DHT22;74189;42.124;24.752;2023-12-22T13:24:19;8.30;55.50
80232;DHT22;74189;42.124;24.752;2023-12-22T13:26:45;8.30;55.60
80232;DHT22;74189;42.124;24.752;2023-12-22T13:29:12;8.30;55.60
80232;DHT22;74189;42.124;24.752;2023-12-22T13:31:39;8.30;54.70
80232;DHT22;74189;42.124;24.752;2023-12-22T13:34:12;8.20;54.70
80232;DHT22;74189;42.124;24.752;2023-12-22T13:36:39;8.10;55.00
80232;DHT22;74189;42.124;24.752;2023-12-22T13:39:06;8.20;55.40
80232;DHT22;74189;42.124;24.752;2023-12-22T13:41:42;8.30;55.50
80232;DHT22;74189;42.124;24.752;2023-12-22T13:44:11;8.30;54.60
80232;DHT22;74189;42.124;24.752;2023-12-22T13:46:37;8.30;54.20
80232;DHT22;74189;42.124;24.752;2023-12-22T13:49:08;8.30;53.10
80232;DHT22;74189;42.124;24.752;2023-12-22T13:51:41;8.30;52.70
80232;DHT22;74189;42.124;24.752;2023-12-22T13:54:07;8.30;52.30
80232;DHT22;74189;42.124;24.752;2023-12-22T13:56:37;8.30;52.60
80232;DHT22;74189;42.124;24.752;2023-12-22T13:59:05;8.30;52.80
80232;DHT22;74189;42.124;24.752;2023-12-22T14:01:31;8.30;52.40
80232;DHT22;74189;42.124;24.752;2023-12-22T14:04:01;8.20;52.30
80232;DHT22;74189;42.124;24.752;2023-12-22T14:06:27;8.20;52.90
80232;DHT22;74189;42.124;24.752;2023-12-22T14:08:56;8.20;53.00
80232;DHT22;74189;42.124;24.752;2023-12-22T14:11:22;8.20;53.40
80232;DHT22;74189;42.124;24.752;2023-12-22T14:13:48;8.20;53.50
80232;DHT22;74189;42.124;24.752;2023-12-22T14:16:14;8.10;53.70
80232;DHT22;74189;42.124;24.752;2023-12-22T14:18:43;8.10;54.20
80232;DHT22;74189;42.124;24.752;2023-12-22T14:21:09;8.10;53.80
80232;DHT22;74189;42.124;24.752;2023-12-22T14:23:34;8.20;53.50
80232;DHT22;74189;42.124;24.752;2023-12-22T14:26:00;8.00;52.20
80232;DHT22;74189;42.124;24.752;2023-12-22T14:28:26;8.00;52.50
80232;DHT22;74189;42.124;24.752;2023-12-22T14:30:53;8.10;52.20
80232;DHT22;74189;42.124;24.752;2023-12-22T14:33:18;8.10;51.60
80232;DHT22;74189;42.124;24.752;2023-12-22T14:35:44;8.10;51.30
80232;DHT22;74189;42.124;24.752;2023-12-22T14:38:10;8.10;50.70
80232;DHT22;74189;42.124;24.752;2023-12-22T14:40:35;8.10;50.80
80232;DHT22;74189;42.124;24.752;2023-12-22T14:43:01;8.10;51.10
80232;DHT22;74189;42.124;24.752;2023-12-22T14:45:27;8.10;51.00
80232;DHT22;74189;42.124;24.752;2023-12-22T14:47:53;8.10;51.30
80232;DHT22;74189;42.124;24.752;2023-12-22T14:50:19;8.10;51.70
80232;DHT22;74189;42.124;24.752;2023-12-22T14:52:45;8.10;51.70
80232;DHT22;74189;42.124;24.752;2023-12-22T14:55:11;8.10;52.10
80232;DHT22;74189;42.124;24.752;2023-12-22T14:57:37;8.10;52.70
80232;DHT22;74189;42.124;24.752;2023-12-22T15:00:04;8.00;52.60
80232;DHT22;74189;42.124;24.752;2023-12-22T15:02:29;8.00;52.70
80232;DHT22;74189;42.124;24.752;2023-12-22T15:04:55;8.00;52.30
80232;DHT22;74189;42.124;24.752;2023-12-22T15:07:21;8.00;51.80
80232;DHT22;74189;42.124;24.752;2023-12-22T15:09:46;8.00;50.30
80232;DHT22;74189;42.124;24.752;2023-12-22T15:12:14;8.00;49.40
80232;DHT22;74189;42.124;24.752;2023-12-22T15:14:45;8.00;48.70
80232;DHT22;74189;42.124;24.752;2023-12-22T15:17:11;7.90;48.10
80232;DHT22;74189;42.124;24.752;2023-12-22T15:19:40;7.90;47.70
80232;DHT22;74189;42.124;24.752;2023-12-22T15:22:08;7.90;48.30
80232;DHT22;74189;42.124;24.752;2023-12-22T15:24:35;7.90;48.60
80232;DHT22;74189;42.124;24.752;2023-12-22T15:27:01;7.90;49.10
80232;DHT22;74189;42.124;24.752;2023-12-22T15:29:27;8.00;49.50
